KRNT - Renton
Updated: Fri, 22-Feb-2019 7:53pm PST

 Wind from calm
Wind: Calm
Temperature: 39°F , 4°C
Dew Point: 36°F , 2°C
Humidity: 87%
Barometer: 29.99 inHg , 1015.6 hPa
Visibility: 10 miles , 16 km
Cloud details: 1800 ft
2900 ft
5500 ft
2019/02/23 03:53 KRNT 230353Z 00000KT 10SM BKN018 BKN029 OVC055 04/02 A2999 RMK AO2 RAE05 SLP161 P0000 T00440022
KBFI - Seattle-Boeing
Updated: Fri, 22-Feb-2019 7:53pm PST

 Wind from SSE
Wind: SSE 7 mph , 11 km/h
Temperature: 39°F , 4°C
Wind Chill: 34°F , 1°C
Dew Point: 36°F , 2°C
Humidity: 87%
Barometer: 29.99 inHg , 1015.6 hPa
Visibility: 10 miles , 16 km
Cloud details: 1900 ft
5500 ft
2019/02/23 03:53 KBFI 230353Z 15006KT 10SM BKN019 OVC055 04/02 A2999 RMK AO2 SLP155 T00440017
 
KSEA - Seattle
Updated: Fri, 22-Feb-2019 7:53pm PST

 Wind from S
Wind: S 9 mph , 15 km/h
Temperature: 39°F , 4°C
Wind Chill: 33°F , 1°C
Dew Point: 34°F , 1°C
Humidity: 81%
Barometer: 29.98 inHg , 1015.2 hPa
Visibility: 10 miles , 16 km
Cloud details: 1100 ft
2019/02/23 03:53 KSEA 230353Z 19008KT 10SM OVC011 04/01 A2998 RMK AO2 SLP160 T00390011
KSMP - Stampede Pass
Updated: Fri, 22-Feb-2019 8:12pm PST
Light snow, Freezing, Fog, Overcast
Light snow, Freezing, Fog, Overcast
 Wind from varies
Wind: varies 3 mph , 6 km/h
Temperature: 27°F , -3°C
Dew Point: 23°F , -5°C
Humidity: 86%
Barometer: 29.82 inHg , 1009.8 hPa
Summary: Light snow, Freezing, Fog
Visibility: 1/2 mile , 0.8 km
Cloud details: 200 ft
2019/02/23 04:12 KSMP 230412Z AUTO VRB03KT 1/2SM -SN FZFG VV002 M03/M05 A2982 RMK AO2 P0002 T10281050 $